sensor_id;sensor_type;location;lat;lon;timestamp;P1;durP1;ratioP1;P2;durP2;ratioP2
76157;SDS011;64907;51.574;6.502;2023-01-30T00:01:25;59.72;;;30.67;;
76157;SDS011;64907;51.574;6.502;2023-01-30T00:03:51;63.72;;;32.15;;
76157;SDS011;64907;51.574;6.502;2023-01-30T00:06:16;56.40;;;30.75;;
76157;SDS011;64907;51.574;6.502;2023-01-30T00:08:41;63.03;;;32.10;;
76157;SDS011;64907;51.574;6.502;2023-01-30T00:11:07;56.35;;;31.17;;
76157;SDS011;64907;51.574;6.502;2023-01-30T00:13:33;61.58;;;30.58;;
76157;SDS011;64907;51.574;6.502;2023-01-30T00:15:58;61.60;;;31.55;;
76157;SDS011;64907;51.574;6.502;2023-01-30T00:18:24;60.55;;;32.05;;
76157;SDS011;64907;51.574;6.502;2023-01-30T00:20:56;54.97;;;31.10;;
76157;SDS011;64907;51.574;6.502;2023-01-30T00:23:21;61.58;;;32.75;;
76157;SDS011;64907;51.574;6.502;2023-01-30T00:25:47;59.15;;;30.63;;
76157;SDS011;64907;51.574;6.502;2023-01-30T00:28:12;64.95;;;30.90;;
76157;SDS011;64907;51.574;6.502;2023-01-30T00:30:37;60.88;;;31.35;;
76157;SDS011;64907;51.574;6.502;2023-01-30T00:33:02;59.15;;;31.38;;
76157;SDS011;64907;51.574;6.502;2023-01-30T00:35:27;54.65;;;31.30;;
76157;SDS011;64907;51.574;6.502;2023-01-30T00:37:56;58.95;;;32.85;;
76157;SDS011;64907;51.574;6.502;2023-01-30T00:40:22;62.13;;;31.35;;
76157;SDS011;64907;51.574;6.502;2023-01-30T00:42:47;57.83;;;30.27;;
76157;SDS011;64907;51.574;6.502;2023-01-30T00:45:31;60.33;;;32.90;;
76157;SDS011;64907;51.574;6.502;2023-01-30T00:48:15;62.40;;;32.38;;
76157;SDS011;64907;51.574;6.502;2023-01-30T00:50:40;64.18;;;33.00;;
76157;SDS011;64907;51.574;6.502;2023-01-30T00:53:12;59.88;;;31.67;;
76157;SDS011;64907;51.574;6.502;2023-01-30T00:55:38;53.90;;;30.35;;
76157;SDS011;64907;51.574;6.502;2023-01-30T00:58:03;59.20;;;31.75;;
76157;SDS011;64907;51.574;6.502;2023-01-30T01:00:29;54.78;;;31.75;;
76157;SDS011;64907;51.574;6.502;2023-01-30T01:02:54;54.38;;;31.98;;
76157;SDS011;64907;51.574;6.502;2023-01-30T01:05:19;55.65;;;31.45;;
76157;SDS011;64907;51.574;6.502;2023-01-30T01:07:44;64.32;;;32.22;;
76157;SDS011;64907;51.574;6.502;2023-01-30T01:10:09;62.00;;;33.47;;
76157;SDS011;64907;51.574;6.502;2023-01-30T01:12:40;57.92;;;30.95;;
76157;SDS011;64907;51.574;6.502;2023-01-30T01:15:05;55.33;;;31.17;;
76157;SDS011;64907;51.574;6.502;2023-01-30T01:17:30;59.03;;;32.13;;
76157;SDS011;64907;51.574;6.502;2023-01-30T01:19:56;58.90;;;32.27;;
76157;SDS011;64907;51.574;6.502;2023-01-30T01:22:21;57.63;;;31.10;;
76157;SDS011;64907;51.574;6.502;2023-01-30T01:24:46;57.45;;;32.15;;
76157;SDS011;64907;51.574;6.502;2023-01-30T01:27:11;58.37;;;31.83;;
76157;SDS011;64907;51.574;6.502;2023-01-30T01:29:36;53.00;;;32.53;;
76157;SDS011;64907;51.574;6.502;2023-01-30T01:32:02;54.70;;;32.10;;
76157;SDS011;64907;51.574;6.502;2023-01-30T01:34:27;53.58;;;31.13;;
76157;SDS011;64907;51.574;6.502;2023-01-30T01:36:52;52.70;;;30.60;;
76157;SDS011;64907;51.574;6.502;2023-01-30T01:39:17;61.00;;;32.13;;
76157;SDS011;64907;51.574;6.502;2023-01-30T01:41:42;63.10;;;32.63;;
76157;SDS011;64907;51.574;6.502;2023-01-30T01:44:09;59.42;;;31.65;;
76157;SDS011;64907;51.574;6.502;2023-01-30T01:46:45;57.65;;;31.38;;
76157;SDS011;64907;51.574;6.502;2023-01-30T01:49:22;60.30;;;34.22;;
76157;SDS011;64907;51.574;6.502;2023-01-30T01:51:59;58.30;;;32.65;;
76157;SDS011;64907;51.574;6.502;2023-01-30T01:54:39;56.22;;;32.60;;
76157;SDS011;64907;51.574;6.502;2023-01-30T01:57:09;54.95;;;32.70;;
76157;SDS011;64907;51.574;6.502;2023-01-30T01:59:43;53.10;;;30.98;;
76157;SDS011;64907;51.574;6.502;2023-01-30T02:02:09;53.92;;;30.60;;
76157;SDS011;64907;51.574;6.502;2023-01-30T02:04:35;57.55;;;32.97;;
76157;SDS011;64907;51.574;6.502;2023-01-30T02:07:20;59.75;;;32.33;;
76157;SDS011;64907;51.574;6.502;2023-01-30T02:09:46;51.50;;;31.52;;
76157;SDS011;64907;51.574;6.502;2023-01-30T02:12:12;49.85;;;30.15;;
76157;SDS011;64907;51.574;6.502;2023-01-30T02:14:38;48.53;;;29.73;;
76157;SDS011;64907;51.574;6.502;2023-01-30T02:17:04;49.85;;;30.98;;
76157;SDS011;64907;51.574;6.502;2023-01-30T02:22:41;53.33;;;32.92;;
76157;SDS011;64907;51.574;6.502;2023-01-30T02:27:20;50.67;;;31.20;;
76157;SDS011;64907;51.574;6.502;2023-01-30T02:35:02;49.33;;;30.67;;
76157;SDS011;64907;51.574;6.502;2023-01-30T02:42:25;47.65;;;29.30;;
76157;SDS011;64907;51.574;6.502;2023-01-30T02:47:55;52.00;;;30.02;;
76157;SDS011;64907;51.574;6.502;2023-01-30T02:50:23;44.35;;;27.00;;
76157;SDS011;64907;51.574;6.502;2023-01-30T02:52:49;49.03;;;29.40;;
76157;SDS011;64907;51.574;6.502;2023-01-30T02:55:19;46.85;;;28.40;;
76157;SDS011;64907;51.574;6.502;2023-01-30T02:57:44;48.92;;;28.65;;
76157;SDS011;64907;51.574;6.502;2023-01-30T03:00:10;52.60;;;28.93;;
76157;SDS011;64907;51.574;6.502;2023-01-30T03:05:06;44.00;;;28.48;;
76157;SDS011;64907;51.574;6.502;2023-01-30T03:07:40;47.22;;;29.92;;
76157;SDS011;64907;51.574;6.502;2023-01-30T03:12:55;40.95;;;28.00;;
76157;SDS011;64907;51.574;6.502;2023-01-30T03:15:25;47.13;;;28.92;;
76157;SDS011;64907;51.574;6.502;2023-01-30T03:17:51;51.92;;;28.95;;
76157;SDS011;64907;51.574;6.502;2023-01-30T03:20:17;48.83;;;28.75;;
76157;SDS011;64907;51.574;6.502;2023-01-30T03:22:43;48.80;;;27.52;;
76157;SDS011;64907;51.574;6.502;2023-01-30T03:25:09;47.13;;;28.70;;
76157;SDS011;64907;51.574;6.502;2023-01-30T03:27:35;50.13;;;30.25;;
76157;SDS011;64907;51.574;6.502;2023-01-30T03:30:01;49.80;;;30.80;;
76157;SDS011;64907;51.574;6.502;2023-01-30T03:32:26;50.65;;;30.58;;
76157;SDS011;64907;51.574;6.502;2023-01-30T03:34:51;48.60;;;27.93;;
76157;SDS011;64907;51.574;6.502;2023-01-30T03:37:17;54.80;;;31.58;;
76157;SDS011;64907;51.574;6.502;2023-01-30T03:39:42;55.33;;;30.63;;
76157;SDS011;64907;51.574;6.502;2023-01-30T03:42:07;53.05;;;32.05;;
76157;SDS011;64907;51.574;6.502;2023-01-30T03:44:33;57.33;;;32.50;;
76157;SDS011;64907;51.574;6.502;2023-01-30T03:46:58;58.47;;;34.22;;
76157;SDS011;64907;51.574;6.502;2023-01-30T03:49:23;61.40;;;32.50;;
76157;SDS011;64907;51.574;6.502;2023-01-30T03:51:48;58.92;;;32.80;;
76157;SDS011;64907;51.574;6.502;2023-01-30T03:54:13;62.75;;;34.42;;
76157;SDS011;64907;51.574;6.502;2023-01-30T03:56:39;68.18;;;35.42;;
76157;SDS011;64907;51.574;6.502;2023-01-30T03:59:04;69.07;;;36.30;;
76157;SDS011;64907;51.574;6.502;2023-01-30T04:01:29;71.80;;;37.80;;
76157;SDS011;64907;51.574;6.502;2023-01-30T04:03:54;74.55;;;37.92;;
76157;SDS011;64907;51.574;6.502;2023-01-30T04:06:19;74.83;;;38.73;;
76157;SDS011;64907;51.574;6.502;2023-01-30T04:08:44;85.55;;;39.08;;
76157;SDS011;64907;51.574;6.502;2023-01-30T04:11:10;75.75;;;38.00;;
76157;SDS011;64907;51.574;6.502;2023-01-30T04:13:35;78.13;;;38.85;;
76157;SDS011;64907;51.574;6.502;2023-01-30T04:16:19;77.55;;;38.22;;
76157;SDS011;64907;51.574;6.502;2023-01-30T04:18:45;76.82;;;37.15;;
76157;SDS011;64907;51.574;6.502;2023-01-30T04:21:11;80.60;;;38.92;;
76157;SDS011;64907;51.574;6.502;2023-01-30T04:23:36;72.63;;;36.55;;
76157;SDS011;64907;51.574;6.502;2023-01-30T04:26:02;77.75;;;39.60;;
76157;SDS011;64907;51.574;6.502;2023-01-30T04:28:27;75.95;;;36.40;;
76157;SDS011;64907;51.574;6.502;2023-01-30T04:30:52;74.43;;;34.92;;
76157;SDS011;64907;51.574;6.502;2023-01-30T04:33:17;67.93;;;36.40;;
76157;SDS011;64907;51.574;6.502;2023-01-30T04:35:53;78.43;;;37.90;;
76157;SDS011;64907;51.574;6.502;2023-01-30T04:38:18;76.05;;;36.13;;
76157;SDS011;64907;51.574;6.502;2023-01-30T04:40:47;81.82;;;37.45;;
76157;SDS011;64907;51.574;6.502;2023-01-30T04:43:13;76.25;;;36.08;;
76157;SDS011;64907;51.574;6.502;2023-01-30T04:45:41;75.67;;;35.77;;
76157;SDS011;64907;51.574;6.502;2023-01-30T04:48:06;67.93;;;36.33;;
76157;SDS011;64907;51.574;6.502;2023-01-30T04:50:31;68.97;;;33.87;;
76157;SDS011;64907;51.574;6.502;2023-01-30T04:52:56;65.15;;;33.60;;
76157;SDS011;64907;51.574;6.502;2023-01-30T04:55:21;55.83;;;31.98;;
76157;SDS011;64907;51.574;6.502;2023-01-30T04:57:47;66.33;;;32.03;;
76157;SDS011;64907;51.574;6.502;2023-01-30T05:00:12;52.95;;;29.15;;
76157;SDS011;64907;51.574;6.502;2023-01-30T05:02:37;53.63;;;29.35;;
76157;SDS011;64907;51.574;6.502;2023-01-30T05:05:02;49.22;;;28.63;;
76157;SDS011;64907;51.574;6.502;2023-01-30T05:07:28;45.67;;;27.25;;
76157;SDS011;64907;51.574;6.502;2023-01-30T05:09:53;49.40;;;28.05;;
76157;SDS011;64907;51.574;6.502;2023-01-30T05:12:18;48.45;;;27.70;;
76157;SDS011;64907;51.574;6.502;2023-01-30T05:14:43;45.13;;;27.77;;
76157;SDS011;64907;51.574;6.502;2023-01-30T05:17:10;46.17;;;28.02;;
76157;SDS011;64907;51.574;6.502;2023-01-30T05:19:35;39.20;;;24.67;;
76157;SDS011;64907;51.574;6.502;2023-01-30T05:22:00;40.08;;;24.30;;
76157;SDS011;64907;51.574;6.502;2023-01-30T05:24:26;47.55;;;27.48;;
76157;SDS011;64907;51.574;6.502;2023-01-30T05:26:51;46.40;;;27.17;;
76157;SDS011;64907;51.574;6.502;2023-01-30T05:29:16;47.08;;;28.05;;
76157;SDS011;64907;51.574;6.502;2023-01-30T05:31:41;50.72;;;28.13;;
76157;SDS011;64907;51.574;6.502;2023-01-30T05:34:08;41.07;;;24.70;;
76157;SDS011;64907;51.574;6.502;2023-01-30T05:36:34;48.08;;;28.15;;
76157;SDS011;64907;51.574;6.502;2023-01-30T05:38:59;50.50;;;29.60;;
76157;SDS011;64907;51.574;6.502;2023-01-30T05:41:25;42.03;;;24.75;;
76157;SDS011;64907;51.574;6.502;2023-01-30T05:43:50;45.07;;;27.00;;
76157;SDS011;64907;51.574;6.502;2023-01-30T05:46:15;42.13;;;24.95;;
76157;SDS011;64907;51.574;6.502;2023-01-30T05:48:41;48.53;;;28.98;;
76157;SDS011;64907;51.574;6.502;2023-01-30T05:51:13;49.85;;;30.10;;
76157;SDS011;64907;51.574;6.502;2023-01-30T05:53:39;53.47;;;28.70;;
76157;SDS011;64907;51.574;6.502;2023-01-30T05:56:04;46.50;;;26.80;;
76157;SDS011;64907;51.574;6.502;2023-01-30T05:58:30;49.83;;;29.70;;
76157;SDS011;64907;51.574;6.502;2023-01-30T06:01:03;44.78;;;27.52;;
76157;SDS011;64907;51.574;6.502;2023-01-30T06:03:28;44.75;;;29.23;;
76157;SDS011;64907;51.574;6.502;2023-01-30T06:05:53;43.28;;;27.60;;
76157;SDS011;64907;51.574;6.502;2023-01-30T06:08:18;43.90;;;27.00;;
76157;SDS011;64907;51.574;6.502;2023-01-30T06:10:44;51.67;;;29.33;;
76157;SDS011;64907;51.574;6.502;2023-01-30T06:13:09;47.33;;;28.97;;
76157;SDS011;64907;51.574;6.502;2023-01-30T06:15:37;48.75;;;30.48;;
76157;SDS011;64907;51.574;6.502;2023-01-30T06:18:02;49.45;;;27.67;;
76157;SDS011;64907;51.574;6.502;2023-01-30T06:20:28;36.92;;;23.38;;
76157;SDS011;64907;51.574;6.502;2023-01-30T06:22:53;31.58;;;20.25;;
76157;SDS011;64907;51.574;6.502;2023-01-30T06:25:18;35.72;;;23.65;;
76157;SDS011;64907;51.574;6.502;2023-01-30T06:27:46;41.75;;;26.00;;
76157;SDS011;64907;51.574;6.502;2023-01-30T06:30:12;40.95;;;23.92;;
76157;SDS011;64907;51.574;6.502;2023-01-30T06:32:37;32.63;;;23.75;;
76157;SDS011;64907;51.574;6.502;2023-01-30T06:35:02;35.97;;;23.33;;
76157;SDS011;64907;51.574;6.502;2023-01-30T06:37:28;34.42;;;20.63;;
76157;SDS011;64907;51.574;6.502;2023-01-30T06:39:53;33.33;;;20.27;;
76157;SDS011;64907;51.574;6.502;2023-01-30T06:42:18;28.92;;;18.77;;
76157;SDS011;64907;51.574;6.502;2023-01-30T06:44:43;30.02;;;18.58;;
76157;SDS011;64907;51.574;6.502;2023-01-30T06:47:08;28.87;;;16.47;;
76157;SDS011;64907;51.574;6.502;2023-01-30T06:49:35;23.55;;;15.57;;
76157;SDS011;64907;51.574;6.502;2023-01-30T06:52:00;24.02;;;15.43;;
76157;SDS011;64907;51.574;6.502;2023-01-30T06:54:25;25.55;;;14.73;;
76157;SDS011;64907;51.574;6.502;2023-01-30T06:56:50;21.88;;;14.07;;
76157;SDS011;64907;51.574;6.502;2023-01-30T06:59:16;29.90;;;12.90;;
76157;SDS011;64907;51.574;6.502;2023-01-30T07:01:41;24.25;;;12.13;;
76157;SDS011;64907;51.574;6.502;2023-01-30T07:04:06;22.90;;;11.02;;
76157;SDS011;64907;51.574;6.502;2023-01-30T07:06:31;24.80;;;9.15;;
76157;SDS011;64907;51.574;6.502;2023-01-30T07:08:57;19.38;;;8.32;;
76157;SDS011;64907;51.574;6.502;2023-01-30T07:11:22;18.75;;;8.65;;
76157;SDS011;64907;51.574;6.502;2023-01-30T07:13:48;22.38;;;6.95;;
76157;SDS011;64907;51.574;6.502;2023-01-30T07:16:13;11.13;;;6.55;;
76157;SDS011;64907;51.574;6.502;2023-01-30T07:18:38;10.73;;;6.03;;
76157;SDS011;64907;51.574;6.502;2023-01-30T07:21:03;21.95;;;5.32;;
76157;SDS011;64907;51.574;6.502;2023-01-30T07:23:28;16.02;;;4.85;;
76157;SDS011;64907;51.574;6.502;2023-01-30T07:25:54;13.27;;;4.55;;
76157;SDS011;64907;51.574;6.502;2023-01-30T07:28:19;16.38;;;5.30;;
76157;SDS011;64907;51.574;6.502;2023-01-30T07:30:44;21.98;;;5.38;;
76157;SDS011;64907;51.574;6.502;2023-01-30T07:33:09;18.98;;;4.03;;
76157;SDS011;64907;51.574;6.502;2023-01-30T07:35:35;13.15;;;4.55;;
76157;SDS011;64907;51.574;6.502;2023-01-30T07:38:00;14.25;;;4.03;;
76157;SDS011;64907;51.574;6.502;2023-01-30T07:40:26;21.67;;;4.70;;
76157;SDS011;64907;51.574;6.502;2023-01-30T07:42:58;16.73;;;4.45;;
76157;SDS011;64907;51.574;6.502;2023-01-30T07:45:24;20.88;;;4.25;;
76157;SDS011;64907;51.574;6.502;2023-01-30T07:47:49;16.85;;;4.65;;
76157;SDS011;64907;51.574;6.502;2023-01-30T07:50:15;12.55;;;4.35;;
76157;SDS011;64907;51.574;6.502;2023-01-30T07:52:40;20.00;;;4.85;;
76157;SDS011;64907;51.574;6.502;2023-01-30T07:55:06;12.68;;;4.40;;
76157;SDS011;64907;51.574;6.502;2023-01-30T07:57:31;20.10;;;5.18;;
76157;SDS011;64907;51.574;6.502;2023-01-30T07:59:56;19.98;;;5.05;;
76157;SDS011;64907;51.574;6.502;2023-01-30T08:02:21;14.17;;;3.50;;
76157;SDS011;64907;51.574;6.502;2023-01-30T08:04:47;18.20;;;4.28;;
76157;SDS011;64907;51.574;6.502;2023-01-30T08:07:12;14.32;;;3.67;;
76157;SDS011;64907;51.574;6.502;2023-01-30T08:09:37;9.65;;;3.50;;
76157;SDS011;64907;51.574;6.502;2023-01-30T08:12:02;12.37;;;4.03;;
76157;SDS011;64907;51.574;6.502;2023-01-30T08:14:27;13.85;;;3.88;;
76157;SDS011;64907;51.574;6.502;2023-01-30T08:16:54;13.25;;;3.55;;
76157;SDS011;64907;51.574;6.502;2023-01-30T08:19:20;11.15;;;3.20;;
76157;SDS011;64907;51.574;6.502;2023-01-30T08:21:45;16.20;;;4.17;;
76157;SDS011;64907;51.574;6.502;2023-01-30T08:24:10;19.75;;;3.97;;
76157;SDS011;64907;51.574;6.502;2023-01-30T08:26:35;18.13;;;3.50;;
76157;SDS011;64907;51.574;6.502;2023-01-30T08:29:00;16.38;;;5.22;;
76157;SDS011;64907;51.574;6.502;2023-01-30T08:31:26;12.33;;;3.43;;
76157;SDS011;64907;51.574;6.502;2023-01-30T08:33:51;12.47;;;3.13;;
76157;SDS011;64907;51.574;6.502;2023-01-30T08:36:16;15.30;;;3.72;;
76157;SDS011;64907;51.574;6.502;2023-01-30T08:38:41;14.20;;;3.43;;
76157;SDS011;64907;51.574;6.502;2023-01-30T08:41:06;15.07;;;3.50;;
76157;SDS011;64907;51.574;6.502;2023-01-30T08:43:32;16.63;;;3.65;;
76157;SDS011;64907;51.574;6.502;2023-01-30T08:45:58;13.00;;;3.20;;
76157;SDS011;64907;51.574;6.502;2023-01-30T08:48:23;16.35;;;3.40;;
76157;SDS011;64907;51.574;6.502;2023-01-30T08:50:52;20.98;;;4.07;;
76157;SDS011;64907;51.574;6.502;2023-01-30T08:53:18;17.83;;;3.47;;
76157;SDS011;64907;51.574;6.502;2023-01-30T08:55:43;13.45;;;3.70;;
76157;SDS011;64907;51.574;6.502;2023-01-30T08:58:09;20.20;;;4.07;;
76157;SDS011;64907;51.574;6.502;2023-01-30T09:00:34;16.10;;;3.83;;
76157;SDS011;64907;51.574;6.502;2023-01-30T09:02:59;18.08;;;3.63;;
76157;SDS011;64907;51.574;6.502;2023-01-30T09:05:26;13.63;;;3.92;;
76157;SDS011;64907;51.574;6.502;2023-01-30T09:07:51;12.77;;;3.17;;
76157;SDS011;64907;51.574;6.502;2023-01-30T09:10:16;9.77;;;3.40;;
76157;SDS011;64907;51.574;6.502;2023-01-30T09:12:42;8.63;;;2.80;;
76157;SDS011;64907;51.574;6.502;2023-01-30T09:15:07;12.60;;;3.10;;
76157;SDS011;64907;51.574;6.502;2023-01-30T09:17:32;17.98;;;3.70;;
76157;SDS011;64907;51.574;6.502;2023-01-30T09:19:59;18.07;;;3.23;;
76157;SDS011;64907;51.574;6.502;2023-01-30T09:22:24;20.67;;;3.38;;
76157;SDS011;64907;51.574;6.502;2023-01-30T09:24:49;12.30;;;3.35;;
76157;SDS011;64907;51.574;6.502;2023-01-30T09:27:14;17.50;;;3.33;;
76157;SDS011;64907;51.574;6.502;2023-01-30T09:29:39;13.47;;;3.40;;
76157;SDS011;64907;51.574;6.502;2023-01-30T09:32:04;19.70;;;4.40;;
76157;SDS011;64907;51.574;6.502;2023-01-30T09:34:30;17.90;;;4.77;;
76157;SDS011;64907;51.574;6.502;2023-01-30T09:36:59;13.80;;;3.65;;
76157;SDS011;64907;51.574;6.502;2023-01-30T09:39:25;17.02;;;3.75;;
76157;SDS011;64907;51.574;6.502;2023-01-30T09:47:14;19.20;;;4.03;;
76157;SDS011;64907;51.574;6.502;2023-01-30T09:54:39;19.50;;;3.70;;
76157;SDS011;64907;51.574;6.502;2023-01-30T09:57:10;20.20;;;3.50;;
76157;SDS011;64907;51.574;6.502;2023-01-30T10:05:03;18.23;;;3.58;;
76157;SDS011;64907;51.574;6.502;2023-01-30T10:13:17;13.70;;;3.17;;
76157;SDS011;64907;51.574;6.502;2023-01-30T10:20:51;16.70;;;3.25;;
76157;SDS011;64907;51.574;6.502;2023-01-30T10:25:46;11.40;;;3.70;;
76157;SDS011;64907;51.574;6.502;2023-01-30T10:28:19;17.60;;;4.13;;
76157;SDS011;64907;51.574;6.502;2023-01-30T10:30:46;12.38;;;2.72;;
76157;SDS011;64907;51.574;6.502;2023-01-30T10:33:27;16.60;;;3.55;;
76157;SDS011;64907;51.574;6.502;2023-01-30T10:38:30;13.55;;;3.13;;
76157;SDS011;64907;51.574;6.502;2023-01-30T10:40:59;11.88;;;2.60;;
76157;SDS011;64907;51.574;6.502;2023-01-30T10:43:27;14.60;;;3.30;;
76157;SDS011;64907;51.574;6.502;2023-01-30T10:48:44;19.08;;;3.22;;
76157;SDS011;64907;51.574;6.502;2023-01-30T10:54:34;15.57;;;4.15;;
76157;SDS011;64907;51.574;6.502;2023-01-30T10:56:36;21.15;;;3.45;;
76157;SDS011;64907;51.574;6.502;2023-01-30T10:59:12;13.30;;;3.30;;
76157;SDS011;64907;51.574;6.502;2023-01-30T11:01:43;11.50;;;3.63;;
76157;SDS011;64907;51.574;6.502;2023-01-30T11:04:28;15.07;;;3.45;;
76157;SDS011;64907;51.574;6.502;2023-01-30T11:06:54;11.48;;;3.05;;
76157;SDS011;64907;51.574;6.502;2023-01-30T11:09:20;13.65;;;3.25;;
76157;SDS011;64907;51.574;6.502;2023-01-30T11:11:50;22.38;;;3.25;;
76157;SDS011;64907;51.574;6.502;2023-01-30T11:14:16;16.70;;;3.60;;
76157;SDS011;64907;51.574;6.502;2023-01-30T11:19:07;16.52;;;3.17;;
76157;SDS011;64907;51.574;6.502;2023-01-30T11:21:33;13.45;;;3.00;;
76157;SDS011;64907;51.574;6.502;2023-01-30T11:24:02;17.65;;;3.20;;
76157;SDS011;64907;51.574;6.502;2023-01-30T11:26:28;15.48;;;3.35;;
76157;SDS011;64907;51.574;6.502;2023-01-30T11:28:54;15.25;;;4.15;;
76157;SDS011;64907;51.574;6.502;2023-01-30T11:31:21;20.33;;;3.35;;
76157;SDS011;64907;51.574;6.502;2023-01-30T11:33:59;11.90;;;2.42;;
76157;SDS011;64907;51.574;6.502;2023-01-30T11:36:26;16.48;;;3.95;;
76157;SDS011;64907;51.574;6.502;2023-01-30T11:39:02;19.80;;;4.30;;
76157;SDS011;64907;51.574;6.502;2023-01-30T11:41:28;10.48;;;3.22;;
76157;SDS011;64907;51.574;6.502;2023-01-30T11:44:00;12.73;;;3.58;;
76157;SDS011;64907;51.574;6.502;2023-01-30T11:46:27;12.50;;;2.38;;
76157;SDS011;64907;51.574;6.502;2023-01-30T11:49:00;13.90;;;3.45;;
76157;SDS011;64907;51.574;6.502;2023-01-30T11:51:27;15.07;;;2.95;;
76157;SDS011;64907;51.574;6.502;2023-01-30T11:53:57;20.13;;;3.30;;
76157;SDS011;64907;51.574;6.502;2023-01-30T11:56:25;10.35;;;2.63;;
76157;SDS011;64907;51.574;6.502;2023-01-30T11:58:54;23.13;;;4.45;;
76157;SDS011;64907;51.574;6.502;2023-01-30T12:01:24;18.45;;;4.10;;
76157;SDS011;64907;51.574;6.502;2023-01-30T12:03:50;24.55;;;4.32;;
76157;SDS011;64907;51.574;6.502;2023-01-30T12:06:59;13.73;;;3.35;;
76157;SDS011;64907;51.574;6.502;2023-01-30T12:09:27;15.68;;;3.55;;
76157;SDS011;64907;51.574;6.502;2023-01-30T12:11:54;15.48;;;2.80;;
76157;SDS011;64907;51.574;6.502;2023-01-30T12:14:37;13.00;;;2.67;;
76157;SDS011;64907;51.574;6.502;2023-01-30T12:17:20;18.92;;;3.40;;
76157;SDS011;64907;51.574;6.502;2023-01-30T12:20:10;15.32;;;2.58;;
76157;SDS011;64907;51.574;6.502;2023-01-30T12:28:29;13.48;;;3.45;;
76157;SDS011;64907;51.574;6.502;2023-01-30T12:31:02;16.75;;;3.42;;
76157;SDS011;64907;51.574;6.502;2023-01-30T12:33:31;17.05;;;3.13;;
76157;SDS011;64907;51.574;6.502;2023-01-30T12:46:43;11.68;;;2.58;;
76157;SDS011;64907;51.574;6.502;2023-01-30T12:52:02;19.67;;;4.20;;
76157;SDS011;64907;51.574;6.502;2023-01-30T12:54:41;21.65;;;4.22;;
76157;SDS011;64907;51.574;6.502;2023-01-30T12:59:50;13.20;;;4.15;;
76157;SDS011;64907;51.574;6.502;2023-01-30T13:07:52;21.98;;;3.50;;
76157;SDS011;64907;51.574;6.502;2023-01-30T13:10:38;18.05;;;3.75;;
76157;SDS011;64907;51.574;6.502;2023-01-30T13:13:13;20.42;;;3.78;;
76157;SDS011;64907;51.574;6.502;2023-01-30T13:18:25;26.17;;;4.07;;
76157;SDS011;64907;51.574;6.502;2023-01-30T13:20:59;19.30;;;3.83;;
76157;SDS011;64907;51.574;6.502;2023-01-30T13:26:13;24.30;;;4.15;;
76157;SDS011;64907;51.574;6.502;2023-01-30T13:28:44;15.15;;;3.50;;
76157;SDS011;64907;51.574;6.502;2023-01-30T13:31:10;16.77;;;3.40;;
76157;SDS011;64907;51.574;6.502;2023-01-30T13:33:37;16.02;;;3.20;;
76157;SDS011;64907;51.574;6.502;2023-01-30T13:36:16;20.77;;;4.88;;
76157;SDS011;64907;51.574;6.502;2023-01-30T13:41:14;19.88;;;3.85;;
76157;SDS011;64907;51.574;6.502;2023-01-30T13:43:43;15.75;;;3.58;;
76157;SDS011;64907;51.574;6.502;2023-01-30T13:46:10;22.20;;;4.30;;
76157;SDS011;64907;51.574;6.502;2023-01-30T13:53:56;16.15;;;3.33;;
76157;SDS011;64907;51.574;6.502;2023-01-30T13:59:12;21.02;;;4.80;;
76157;SDS011;64907;51.574;6.502;2023-01-30T14:06:54;18.20;;;3.97;;
76157;SDS011;64907;51.574;6.502;2023-01-30T14:09:31;18.40;;;3.80;;
76157;SDS011;64907;51.574;6.502;2023-01-30T14:11:58;26.70;;;4.30;;
76157;SDS011;64907;51.574;6.502;2023-01-30T14:14:28;17.45;;;3.42;;
76157;SDS011;64907;51.574;6.502;2023-01-30T14:17:07;18.88;;;4.10;;
76157;SDS011;64907;51.574;6.502;2023-01-30T14:19:38;12.23;;;3.10;;
76157;SDS011;64907;51.574;6.502;2023-01-30T14:22:15;16.92;;;4.78;;
76157;SDS011;64907;51.574;6.502;2023-01-30T14:24:42;18.10;;;3.50;;
76157;SDS011;64907;51.574;6.502;2023-01-30T14:27:23;25.13;;;4.00;;
76157;SDS011;64907;51.574;6.502;2023-01-30T14:29:52;14.35;;;3.53;;
76157;SDS011;64907;51.574;6.502;2023-01-30T14:34:44;16.30;;;3.38;;
76157;SDS011;64907;51.574;6.502;2023-01-30T14:37:24;29.65;;;4.72;;
76157;SDS011;64907;51.574;6.502;2023-01-30T14:39:51;18.00;;;4.10;;
76157;SDS011;64907;51.574;6.502;2023-01-30T14:42:24;20.73;;;3.65;;
76157;SDS011;64907;51.574;6.502;2023-01-30T14:44:56;21.95;;;4.00;;
76157;SDS011;64907;51.574;6.502;2023-01-30T14:47:22;26.58;;;4.47;;
76157;SDS011;64907;51.574;6.502;2023-01-30T14:49:47;19.35;;;3.33;;
76157;SDS011;64907;51.574;6.502;2023-01-30T14:52:21;22.92;;;4.57;;
76157;SDS011;64907;51.574;6.502;2023-01-30T14:54:50;20.38;;;3.55;;
76157;SDS011;64907;51.574;6.502;2023-01-30T14:57:20;14.95;;;4.28;;
76157;SDS011;64907;51.574;6.502;2023-01-30T14:59:52;14.98;;;3.33;;
76157;SDS011;64907;51.574;6.502;2023-01-30T15:07:18;21.13;;;4.50;;
76157;SDS011;64907;51.574;6.502;2023-01-30T15:09:50;22.48;;;4.68;;
76157;SDS011;64907;51.574;6.502;2023-01-30T15:14:55;18.63;;;3.80;;
76157;SDS011;64907;51.574;6.502;2023-01-30T15:20:15;18.85;;;3.28;;
76157;SDS011;64907;51.574;6.502;2023-01-30T15:22:45;24.15;;;4.57;;
76157;SDS011;64907;51.574;6.502;2023-01-30T15:32:40;20.65;;;4.53;;
76157;SDS011;64907;51.574;6.502;2023-01-30T15:42:44;17.83;;;4.35;;
76157;SDS011;64907;51.574;6.502;2023-01-30T15:45:12;22.65;;;4.20;;
76157;SDS011;64907;51.574;6.502;2023-01-30T15:50:23;23.35;;;4.57;;
76157;SDS011;64907;51.574;6.502;2023-01-30T15:52:48;19.40;;;4.57;;
76157;SDS011;64907;51.574;6.502;2023-01-30T15:55:16;19.13;;;4.65;;
76157;SDS011;64907;51.574;6.502;2023-01-30T15:57:42;15.40;;;3.45;;
76157;SDS011;64907;51.574;6.502;2023-01-30T16:00:15;16.25;;;3.70;;
76157;SDS011;64907;51.574;6.502;2023-01-30T16:02:43;22.67;;;4.50;;
76157;SDS011;64907;51.574;6.502;2023-01-30T16:05:22;18.13;;;3.45;;
76157;SDS011;64907;51.574;6.502;2023-01-30T16:07:48;22.63;;;3.92;;
76157;SDS011;64907;51.574;6.502;2023-01-30T16:12:42;15.75;;;3.92;;
76157;SDS011;64907;51.574;6.502;2023-01-30T16:15:51;18.75;;;4.15;;
76157;SDS011;64907;51.574;6.502;2023-01-30T16:18:04;16.25;;;3.80;;
76157;SDS011;64907;51.574;6.502;2023-01-30T16:20:54;22.85;;;4.95;;
76157;SDS011;64907;51.574;6.502;2023-01-30T16:23:18;17.23;;;3.90;;
76157;SDS011;64907;51.574;6.502;2023-01-30T16:25:46;18.95;;;4.22;;
76157;SDS011;64907;51.574;6.502;2023-01-30T16:28:11;25.40;;;4.72;;
76157;SDS011;64907;51.574;6.502;2023-01-30T16:30:36;21.98;;;4.50;;
76157;SDS011;64907;51.574;6.502;2023-01-30T16:33:06;21.35;;;4.80;;
76157;SDS011;64907;51.574;6.502;2023-01-30T16:35:34;20.35;;;4.05;;
76157;SDS011;64907;51.574;6.502;2023-01-30T16:38:22;17.38;;;3.88;;
76157;SDS011;64907;51.574;6.502;2023-01-30T16:40:52;22.15;;;3.90;;
76157;SDS011;64907;51.574;6.502;2023-01-30T16:50:43;27.83;;;4.97;;
76157;SDS011;64907;51.574;6.502;2023-01-30T16:53:16;22.10;;;4.78;;
76157;SDS011;64907;51.574;6.502;2023-01-30T16:55:53;17.83;;;4.00;;
76157;SDS011;64907;51.574;6.502;2023-01-30T16:58:19;32.28;;;5.38;;
76157;SDS011;64907;51.574;6.502;2023-01-30T17:00:45;25.15;;;3.83;;
76157;SDS011;64907;51.574;6.502;2023-01-30T17:03:21;18.95;;;4.07;;
76157;SDS011;64907;51.574;6.502;2023-01-30T17:05:47;21.80;;;4.95;;